Погода Ангольна 2 недели

Араукания, Чили

03 - 16 марта
  • 03марта
    Сегодня
    +11°
    +25°
    Ясно и безоблачно
    ВремяПогодаТемператураВлажностьДавлениеВетер, м/сВероятность осадков
    00:00Ясно и безоблачно+13°C55 %758 мм7.1 м/с5 %
    03:00Ясно и безоблачно+11°C49 %757 мм7.4 м/с5 %
    06:00Ясно и безоблачно+9°C45 %757 мм7.6 м/с5 %
    09:00Ясно и безоблачно+12°C40 %757 мм7.3 м/с5 %
    12:00Ясно и безоблачно+18°C29 %757 мм7.6 м/с5 %
    15:00Ясно и безоблачно+23°C22 %756 мм7.2 м/с5 %
    18:00Ясно и безоблачно+24°C29 %756 мм7.1 м/с5 %
    21:00Ясно и безоблачно+17°C41 %757 мм5.8 м/с5 %
  • 04марта
    Понедельник
    +12°
    +29°
    Практически безоблачно
    ВремяПогодаТемператураВлажностьДавлениеВетер, м/сВероятность осадков
    00:00Ясно и безоблачно+13°C47 %757 мм6.2 м/с5 %
    03:00Ясно и безоблачно+12°C45 %756 мм6.2 м/с5 %
    06:00Ясно и безоблачно+11°C50 %755 мм5.8 м/с5 %
    09:00Ясно и безоблачно+14°C48 %755 мм5.6 м/с5 %
    12:00Ясно и безоблачно+21°C31 %754 мм5.4 м/с5 %
    15:00Практически безоблачно+27°C22 %753 мм6.0 м/с5 %
    18:00Ясно и безоблачно+29°C24 %753 мм6.0 м/с5 %
    21:00Ясно и безоблачно+20°C41 %754 мм4.1 м/с5 %
  • 05марта
    Вторник
    +12°
    +28°
    Ясно и безоблачно
    ВремяПогодаТемператураВлажностьДавлениеВетер, м/сВероятность осадков
    00:00Ясно и безоблачно+16°C45 %754 мм3.4 м/с5 %
    03:00Ясно и безоблачно+15°C50 %753 мм3.8 м/с5 %
    06:00Ясно и безоблачно+14°C59 %753 мм3.7 м/с5 %
    09:00Ясно и безоблачно+15°C59 %753 мм4.2 м/с5 %
    12:00Ясно и безоблачно+23°C35 %753 мм5.2 м/с5 %
    15:00Ясно и безоблачно+27°C26 %753 мм6.1 м/с5 %
    18:00Практически безоблачно+28°C28 %753 мм6.6 м/с5 %
    21:00Облачно с прояснениями+20°C43 %754 мм5.3 м/с5 %
  • 06марта
    Среда
    +9°
    +24°
    Ясно и безоблачно
    ВремяПогодаТемператураВлажностьДавлениеВетер, м/сВероятность осадков
    00:00Практически безоблачно+15°C79 %754 мм4.3 м/с5 %
    03:00Практически безоблачно+16°C84 %754 мм4.5 м/с5 %
    06:00Облачно с прояснениями+14°C82 %753 мм5.1 м/с5 %
    09:00Небольшая облачность+14°C71 %754 мм5.1 м/с5 %
    12:00Ясно и безоблачно+19°C46 %754 мм5.6 м/с5 %
    15:00Ясно и безоблачно+22°C25 %753 мм5.3 м/с5 %
    18:00Ясно и безоблачно+24°C28 %752 мм4.9 м/с5 %
    21:00Ясно и безоблачно+17°C42 %753 мм5.1 м/с5 %
  • 07марта
    Четверг
    +10°
    +25°
    Ясно и безоблачно
    ВремяПогодаТемператураВлажностьДавлениеВетер, м/сВероятность осадков
    00:00Ясно и безоблачно+12°C58 %754 мм3.9 м/с5 %
    03:00Ясно и безоблачно+10°C62 %753 мм3.1 м/с5 %
    06:00Ясно и безоблачно+10°C64 %753 мм3.4 м/с5 %
    09:00Ясно и безоблачно+11°C60 %754 мм3.8 м/с5 %
    12:00Ясно и безоблачно+17°C41 %754 мм3.4 м/с5 %
    15:00Ясно и безоблачно+21°C30 %753 мм1.1 м/с5 %
    18:00Ясно и безоблачно+23°C29 %753 мм2.0 м/с4 %
    21:00Ясно и безоблачно+16°C52 %754 мм4.1 м/с4 %
Мы используем cookies
Соглашаюсь